Terminal Aerodrome Forecast
Issued by NWS

Home | Current Version | Previous Version | Text Only | Print | Product List | Glossary On
Versions: 1 2 3 4 5 6 7 8 9 10 11 12 13 14
395
FTUS42 TJSJ 222337
TAFIST
TAF
TIST 222337Z 2300/2324 11009KT P6SM VCSH SCT025
     FM231300 14014KT P6SM VCSH FEW025 SCT035
     FM232300 10007KT P6SM VCSH SCT030 SCT060=

USA.gov is the U.S. government's official web portal to all federal, state and local government web resources and services.